createdAt,value
2022-09-10T02:07:47.036Z,7.87
2022-09-10T02:10:15.584Z,6.60
2022-09-10T02:12:46.037Z,7.77
2022-09-10T02:15:40.090Z,6.40
2022-09-10T02:18:20.998Z,10.43
2022-09-10T02:20:51.480Z,10.20
2022-09-10T02:23:21.852Z,4.67
2022-09-10T02:25:51.820Z,13.87
2022-09-10T02:28:21.693Z,9.80
2022-09-10T02:30:49.048Z,14.30
2022-09-10T02:33:16.246Z,7.83
2022-09-10T02:35:44.005Z,7.53
2022-09-10T02:38:11.476Z,14.77
2022-09-10T02:40:39.272Z,13.70
2022-09-10T02:43:08.417Z,10.67
2022-09-10T02:45:37.510Z,12.87
2022-09-10T02:48:04.835Z,14.63
2022-09-10T02:50:34.118Z,8.43
2022-09-10T02:53:03.280Z,8.60
2022-09-10T02:55:31.460Z,8.80
2022-09-10T02:57:58.719Z,9.40
2022-09-10T03:00:26.477Z,12.57
2022-09-10T03:02:59.674Z,9.87
2022-09-10T03:05:29.797Z,13.80
2022-09-10T03:07:58.036Z,13.23
2022-09-10T03:10:25.548Z,15.70
2022-09-10T03:12:53.759Z,15.10
2022-09-10T03:15:22.772Z,7.93
2022-09-10T03:17:51.315Z,14.87
2022-09-10T03:20:22.903Z,12.40
2022-09-10T03:22:51.390Z,12.63
2022-09-10T03:25:19.615Z,16.50
2022-09-10T03:27:46.877Z,14.27
2022-09-10T03:30:14.172Z,11.03
2022-09-10T03:32:41.744Z,14.77
2022-09-10T03:35:10.175Z,12.40
2022-09-10T03:37:38.626Z,15.33
2022-09-10T03:40:06.955Z,14.27
2022-09-10T03:42:36.861Z,12.53
2022-09-10T03:45:04.875Z,12.17
2022-09-10T03:47:32.078Z,11.07
2022-09-10T03:50:01.418Z,14.37
2022-09-10T03:52:29.987Z,15.70
2022-09-10T03:54:57.936Z,9.37
2022-09-10T03:57:26.150Z,9.77
2022-09-10T03:59:53.402Z,14.93
2022-09-10T04:02:20.764Z,13.43
2022-09-10T04:04:48.075Z,12.97
2022-09-10T04:07:15.765Z,12.63
2022-09-10T04:09:43.032Z,11.37
2022-09-10T04:12:10.498Z,8.07
2022-09-10T04:14:37.769Z,8.00
2022-09-10T04:17:05.436Z,13.30
2022-09-10T04:19:32.700Z,16.37
2022-09-10T04:21:59.917Z,12.03
2022-09-10T04:24:27.313Z,10.13
2022-09-10T04:26:54.896Z,10.67
2022-09-10T04:29:23.409Z,11.60
2022-09-10T04:31:50.881Z,11.53
2022-09-10T04:34:19.470Z,14.43
2022-09-10T04:36:46.765Z,11.20
2022-09-10T04:39:14.591Z,14.60
2022-09-10T04:41:42.601Z,13.30
2022-09-10T04:44:10.273Z,12.50
2022-09-10T04:46:37.573Z,10.63
2022-09-10T04:49:09.721Z,10.20
2022-09-10T04:51:37.339Z,9.77
2022-09-10T04:54:04.853Z,9.00
2022-09-10T04:56:36.500Z,6.13
2022-09-10T04:59:05.071Z,13.30
2022-09-10T05:01:35.785Z,8.13
2022-09-10T05:04:04.218Z,12.60
2022-09-10T05:06:32.125Z,16.17
2022-09-10T05:08:59.563Z,7.43
2022-09-10T05:11:27.371Z,9.73
2022-09-10T05:13:54.712Z,9.23
2022-09-10T05:16:25.310Z,6.30
2022-09-10T05:18:53.261Z,10.80
2022-09-10T05:21:20.782Z,9.83
2022-09-10T05:23:48.305Z,7.27
2022-09-10T05:26:15.833Z,8.20
2022-09-10T05:28:43.202Z,9.80
2022-09-10T05:31:14.383Z,11.30
2022-09-10T05:33:44.170Z,16.90
2022-09-10T05:36:12.828Z,7.50
2022-09-10T05:38:41.597Z,14.43
2022-09-10T05:41:12.121Z,11.47
2022-09-10T05:43:44.260Z,8.83
2022-09-10T05:46:12.521Z,8.83
2022-09-10T05:48:42.800Z,10.17
2022-09-10T05:51:11.751Z,9.23
2022-09-10T05:53:41.641Z,9.97
2022-09-10T05:56:09.220Z,6.50
2022-09-10T05:58:38.049Z,6.70
2022-09-10T06:01:07.292Z,10.20
2022-09-10T06:03:34.712Z,12.00
2022-09-10T06:06:02.894Z,12.97
2022-09-10T06:08:34.367Z,3.63
2022-09-10T06:11:10.665Z,6.13
2022-09-10T06:13:42.205Z,7.83
2022-09-10T06:16:09.859Z,10.67
2022-09-10T06:18:37.462Z,8.43
2022-09-10T06:21:11.458Z,7.73
2022-09-10T06:23:41.778Z,7.97
2022-09-10T06:26:14.722Z,9.10
2022-09-10T06:28:43.411Z,8.27
2022-09-10T06:31:16.902Z,2.57
2022-09-10T06:33:44.808Z,7.63
2022-09-10T06:36:12.645Z,3.67
2022-09-10T06:38:41.005Z,5.53
2022-09-10T06:41:12.096Z,8.07
2022-09-10T06:43:44.877Z,6.77
2022-09-10T06:49:19.489Z,6.97
2022-09-10T06:51:50.147Z,7.17
2022-09-10T06:54:19.115Z,7.70
2022-09-10T06:56:48.811Z,6.13
2022-09-10T06:59:18.202Z,5.77
2022-09-10T07:01:48.074Z,5.50
2022-09-10T07:04:16.482Z,8.40
2022-09-10T07:06:47.597Z,5.73
2022-09-10T07:09:16.395Z,6.10
2022-09-10T07:11:57.327Z,3.43
2022-09-10T07:14:25.615Z,5.30
2022-09-10T07:16:53.479Z,3.50
2022-09-10T07:19:23.633Z,5.23
2022-09-10T07:21:51.104Z,6.97
2022-09-10T07:24:19.995Z,5.03
2022-09-10T07:27:06.281Z,7.10
2022-09-10T07:29:35.651Z,2.73
2022-09-10T07:32:04.419Z,4.73
2022-09-10T07:34:32.466Z,6.43
2022-09-10T07:37:01.847Z,4.67
2022-09-10T07:39:30.485Z,7.30
2022-09-10T07:42:00.273Z,3.73
2022-09-10T07:44:29.954Z,4.40
2022-09-10T07:47:03.333Z,5.70
2022-09-10T07:49:32.700Z,6.63
2022-09-10T07:52:04.278Z,5.93
2022-09-10T07:54:37.951Z,5.23
2022-09-10T07:57:05.921Z,3.13
2022-09-10T07:59:34.725Z,6.33
2022-09-10T08:02:06.369Z,5.97
2022-09-10T08:04:37.468Z,7.73
2022-09-10T08:07:08.442Z,9.57
2022-09-10T08:09:38.392Z,10.03
2022-09-10T08:12:08.405Z,8.67
2022-09-10T08:14:38.068Z,3.07
2022-09-10T08:17:05.710Z,3.53
2022-09-10T08:19:37.323Z,3.53
2022-09-10T08:22:04.822Z,2.33
2022-09-10T08:24:42.678Z,12.70
2022-09-10T08:27:11.504Z,5.73
2022-09-10T08:29:39.563Z,3.97
2022-09-10T08:32:08.214Z,7.27
2022-09-10T08:34:35.631Z,4.20
2022-09-10T08:37:08.955Z,3.90
2022-09-10T08:39:37.966Z,2.70
2022-09-10T08:42:14.599Z,6.40
2022-09-10T08:44:56.337Z,5.57
2022-09-10T08:47:34.357Z,6.60
2022-09-10T08:50:09.034Z,7.90
2022-09-10T08:52:46.083Z,4.33
2022-09-10T08:55:20.985Z,5.10
2022-09-10T08:57:51.481Z,6.63
2022-09-10T09:00:21.224Z,3.80
2022-09-10T09:03:02.261Z,14.90
2022-09-10T09:05:35.488Z,8.57
2022-09-10T09:08:06.221Z,4.60
2022-09-10T09:10:50.568Z,8.53
2022-09-10T09:13:32.040Z,9.80
2022-09-10T09:16:24.138Z,8.03
2022-09-10T09:19:05.977Z,7.07
2022-09-10T09:21:42.945Z,6.80
2022-09-10T09:24:23.594Z,7.07
2022-09-10T09:27:01.039Z,8.57
2022-09-10T09:29:29.204Z,8.87
2022-09-10T09:32:00.757Z,5.00
2022-09-10T09:34:38.492Z,7.73
2022-09-10T09:37:18.129Z,11.83
2022-09-10T09:39:49.646Z,8.67
2022-09-10T09:42:39.879Z,11.17
2022-09-10T09:45:19.521Z,10.05
2022-09-10T09:47:47.328Z,8.27
2022-09-10T09:50:15.307Z,5.35
2022-09-10T09:52:44.882Z,11.00
2022-09-10T09:55:23.607Z,9.77
2022-09-10T09:58:10.807Z,7.32
2022-09-10T10:00:38.516Z,7.93
2022-09-10T10:03:13.931Z,5.82
2022-09-10T10:05:42.411Z,6.30
2022-09-10T10:08:30.139Z,7.50
2022-09-10T10:10:58.132Z,8.00
2022-09-10T10:13:25.457Z,10.05
2022-09-10T10:15:54.094Z,10.88
2022-09-10T10:18:31.629Z,8.93
2022-09-10T10:21:20.413Z,6.20
2022-09-10T10:23:48.390Z,8.85
2022-09-10T10:26:21.701Z,6.78
2022-09-10T10:28:49.654Z,8.25
2022-09-10T10:31:17.266Z,9.05
2022-09-10T10:33:56.691Z,6.28
2022-09-10T10:36:38.348Z,6.38
2022-09-10T10:39:11.553Z,8.25
2022-09-10T10:41:42.901Z,4.43
2022-09-10T10:44:16.532Z,5.15
2022-09-10T10:47:02.115Z,7.25
2022-09-10T10:49:48.266Z,5.63
2022-09-10T10:52:41.374Z,6.43
2022-09-10T10:55:31.782Z,8.13
2022-09-10T10:58:08.261Z,6.45
2022-09-10T11:00:41.283Z,3.58
2022-09-10T11:03:16.150Z,4.07
2022-09-10T11:05:49.289Z,6.70
2022-09-10T11:08:27.776Z,3.83
2022-09-10T11:11:02.216Z,3.72
2022-09-10T11:13:38.316Z,9.00
2022-09-10T11:16:08.757Z,4.38
2022-09-10T11:18:39.324Z,5.43
2022-09-10T11:21:18.752Z,3.05
2022-09-10T11:23:57.130Z,4.75
2022-09-10T11:26:28.108Z,5.05
2022-09-10T11:29:04.339Z,10.70
2022-09-10T11:31:33.517Z,3.90
2022-09-10T11:34:10.032Z,3.72
2022-09-10T11:36:45.289Z,4.30
2022-09-10T11:39:12.662Z,3.30
2022-09-10T11:41:42.222Z,5.63
2022-09-10T11:44:36.251Z,4.25
2022-09-10T11:47:15.418Z,2.75
2022-09-10T11:49:50.461Z,3.75
2022-09-10T11:52:18.155Z,4.05
2022-09-10T11:54:48.833Z,3.60
2022-09-10T11:57:33.199Z,3.13
2022-09-10T12:00:11.962Z,2.78
2022-09-10T12:02:52.222Z,4.45
2022-09-10T12:05:27.655Z,3.28
2022-09-10T12:08:11.054Z,3.22
2022-09-10T12:10:57.280Z,3.55
2022-09-10T12:13:27.420Z,5.20
2022-09-10T12:15:56.871Z,2.00
2022-09-10T12:18:28.005Z,2.15
2022-09-10T12:20:59.713Z,3.58
2022-09-10T12:23:31.374Z,1.98
2022-09-10T12:26:13.084Z,2.80
2022-09-10T12:28:43.404Z,2.33
2022-09-10T12:31:11.553Z,3.45
2022-09-10T12:33:44.847Z,2.78
2022-09-10T12:36:16.805Z,2.80
2022-09-10T12:38:47.522Z,1.92
2022-09-10T12:41:23.897Z,3.45
2022-09-10T12:44:03.925Z,4.55
2022-09-10T12:46:32.011Z,2.53
2022-09-10T12:49:02.547Z,3.72
2022-09-10T12:51:48.643Z,3.45
2022-09-10T12:54:16.074Z,3.15
2022-09-10T12:56:52.749Z,2.67
2022-09-10T12:59:52.698Z,4.70
2022-09-10T13:02:27.075Z,2.97
2022-09-10T13:05:02.513Z,2.85
2022-09-10T13:07:36.855Z,5.25
2022-09-10T13:10:19.762Z,4.35
2022-09-10T13:12:55.196Z,1.95
2022-09-10T13:15:27.375Z,4.85
2022-09-10T13:17:54.644Z,2.45
2022-09-10T13:20:21.887Z,4.82
2022-09-10T13:23:08.316Z,5.78
2022-09-10T13:25:36.781Z,3.78
2022-09-10T13:28:29.865Z,6.55
2022-09-10T13:31:01.797Z,3.88
2022-09-10T13:33:33.337Z,2.20
2022-09-10T13:36:21.369Z,2.17
2022-09-10T13:38:58.607Z,3.72
2022-09-10T13:41:44.823Z,5.38
2022-09-10T13:44:34.453Z,5.05
2022-09-10T13:47:06.489Z,2.85
2022-09-10T13:49:50.325Z,3.42
2022-09-10T13:52:19.780Z,2.90
2022-09-10T13:54:49.544Z,5.57
2022-09-10T13:57:22.595Z,1.23
2022-09-10T13:59:51.021Z,1.63
2022-09-10T14:02:19.860Z,2.55
2022-09-10T14:04:47.759Z,1.30
2022-09-10T14:07:20.845Z,1.75
2022-09-10T14:09:51.730Z,2.13
2022-09-10T14:12:20.911Z,4.22
2022-09-10T14:14:49.983Z,2.47
2022-09-10T14:17:20.936Z,1.25
2022-09-10T14:20:11.330Z,4.00
2022-09-10T14:22:38.929Z,1.77
2022-09-10T14:25:06.378Z,3.83
2022-09-10T14:27:35.016Z,3.75
2022-09-10T14:30:21.281Z,2.92
2022-09-10T14:32:48.541Z,2.47
2022-09-10T14:35:38.122Z,2.17
2022-09-10T14:38:21.825Z,1.77
2022-09-10T14:40:49.704Z,1.67
2022-09-10T14:43:25.907Z,3.50
2022-09-10T14:45:53.286Z,3.03
2022-09-10T14:48:32.571Z,1.38
2022-09-10T14:51:18.408Z,5.82
2022-09-10T14:53:46.787Z,1.42
2022-09-10T14:56:22.249Z,4.78
2022-09-10T14:58:56.649Z,1.75
2022-09-10T15:01:24.465Z,2.00
2022-09-10T15:03:51.787Z,2.35
2022-09-10T15:06:21.983Z,1.83
2022-09-10T15:08:56.134Z,2.78
2022-09-10T15:11:25.705Z,4.32
2022-09-10T15:13:55.755Z,6.07
2022-09-10T15:16:23.412Z,2.22
2022-09-10T15:18:50.719Z,3.55
2022-09-10T15:21:18.006Z,3.53
2022-09-10T15:23:48.142Z,2.58
2022-09-10T15:26:15.470Z,3.05
2022-09-10T15:28:42.748Z,4.93
2022-09-10T15:31:10.951Z,2.45
2022-09-10T15:33:38.410Z,3.95
2022-09-10T15:36:06.171Z,6.25
2022-09-10T15:38:33.510Z,4.20
2022-09-10T15:41:14.077Z,2.60
2022-09-10T15:43:43.438Z,3.78
2022-09-10T15:46:12.157Z,4.88
2022-09-10T15:48:40.124Z,2.70
2022-09-10T15:51:13.741Z,3.97
2022-09-10T15:53:41.777Z,5.25
2022-09-10T15:56:11.501Z,4.63
2022-09-10T15:58:39.099Z,4.15
2022-09-10T16:01:12.319Z,5.20
2022-09-10T16:03:47.734Z,2.38
2022-09-10T16:06:15.737Z,2.90
2022-09-10T16:08:42.994Z,3.30
2022-09-10T16:11:13.961Z,2.70
2022-09-10T16:13:41.247Z,4.22
2022-09-10T16:16:11.768Z,5.60
2022-09-10T16:18:39.199Z,4.53
2022-09-10T16:21:11.581Z,4.03
2022-09-10T16:23:40.394Z,5.13
2022-09-10T16:26:09.212Z,5.90
2022-09-10T16:28:37.223Z,4.90
2022-09-10T16:31:16.280Z,4.97
2022-09-10T16:33:43.848Z,3.08
2022-09-10T16:36:11.210Z,3.08
2022-09-10T16:38:38.757Z,4.72
2022-09-10T16:41:07.164Z,3.00
2022-09-10T16:43:36.227Z,2.30
2022-09-10T16:46:07.190Z,1.70
2022-09-10T16:48:35.066Z,3.30
2022-09-10T16:51:13.554Z,4.15
2022-09-10T16:53:44.252Z,4.97
2022-09-10T16:56:15.089Z,4.72
2022-09-10T16:58:45.797Z,3.40
2022-09-10T17:01:13.113Z,2.30
2022-09-10T17:03:41.262Z,6.78
2022-09-10T17:06:18.195Z,4.07
2022-09-10T17:08:45.920Z,5.25
2022-09-10T17:11:14.296Z,3.95
2022-09-10T17:13:41.994Z,3.72
2022-09-10T17:16:26.270Z,6.75
2022-09-10T17:19:01.108Z,10.68
2022-09-10T17:21:29.559Z,6.40
2022-09-10T17:23:57.109Z,6.00
2022-09-10T17:26:25.077Z,7.78
2022-09-10T17:28:53.775Z,9.55
2022-09-10T17:31:21.302Z,9.43
2022-09-10T17:33:48.605Z,7.20
2022-09-10T17:36:15.883Z,5.83
2022-09-10T17:38:43.290Z,6.93
2022-09-10T17:41:14.344Z,5.67
2022-09-10T17:43:42.720Z,6.77
2022-09-10T17:46:11.672Z,7.53
2022-09-10T17:48:39.372Z,7.70
2022-09-10T17:51:07.157Z,7.93
2022-09-10T17:53:35.044Z,9.33
2022-09-10T17:56:03.879Z,11.73
2022-09-10T17:58:33.270Z,7.30
2022-09-10T18:01:05.921Z,10.47
2022-09-10T18:03:33.533Z,11.87
2022-09-10T18:06:08.735Z,12.90
2022-09-10T18:08:36.626Z,11.77
2022-09-10T18:11:09.023Z,12.40
2022-09-10T18:13:36.840Z,13.40
2022-09-10T18:16:09.119Z,17.33
2022-09-10T18:18:36.835Z,15.03
2022-09-10T18:21:17.522Z,17.47
2022-09-10T18:23:44.781Z,15.27
2022-09-10T18:26:15.559Z,16.47
2022-09-10T18:28:43.505Z,20.17
2022-09-10T18:31:11.340Z,13.37
2022-09-10T18:33:41.981Z,10.67
2022-09-10T18:36:17.350Z,8.70
2022-09-10T18:38:44.958Z,4.73
2022-09-10T18:41:20.223Z,7.03
2022-09-10T18:43:47.696Z,6.40
2022-09-10T18:46:15.287Z,4.57
2022-09-10T18:48:43.956Z,7.83
2022-09-10T18:51:11.999Z,4.37
2022-09-10T18:53:42.741Z,5.00
2022-09-10T18:56:18.219Z,7.93
2022-09-10T18:58:50.195Z,7.97
2022-09-10T19:01:19.676Z,6.17
2022-09-10T19:03:47.927Z,4.93
2022-09-10T19:06:20.353Z,4.77
2022-09-10T19:08:53.377Z,5.13
2022-09-10T19:11:25.371Z,7.87
2022-09-10T19:13:53.848Z,4.53
2022-09-10T19:16:23.358Z,6.87
2022-09-10T19:18:52.003Z,11.23
2022-09-10T19:21:21.885Z,7.30
2022-09-10T19:23:50.155Z,5.93
2022-09-10T19:26:20.121Z,7.10
2022-09-10T19:28:49.750Z,6.47
2022-09-10T19:31:20.593Z,5.50
2022-09-10T19:33:48.589Z,7.57
2022-09-10T19:36:19.616Z,19.30
2022-09-10T19:38:47.290Z,13.20
2022-09-10T19:41:20.211Z,13.17
2022-09-10T19:43:48.270Z,7.80
2022-09-10T19:46:16.353Z,6.63
2022-09-10T19:48:44.410Z,7.23
2022-09-10T19:51:13.807Z,5.17
2022-09-10T19:53:41.531Z,5.43
2022-09-10T19:56:10.212Z,7.60
2022-09-10T19:58:43.224Z,7.07
2022-09-10T20:01:17.183Z,7.63
2022-09-10T20:03:45.824Z,4.93
2022-09-10T20:06:18.418Z,5.67
2022-09-10T20:08:51.888Z,8.10
2022-09-10T20:11:27.542Z,5.23
2022-09-10T20:13:58.786Z,5.47
2022-09-10T20:16:26.384Z,7.13
2022-09-10T20:18:54.009Z,8.93
2022-09-10T20:21:24.438Z,6.30
2022-09-10T20:23:52.767Z,8.00
2022-09-10T20:26:24.573Z,9.80
2022-09-10T20:28:53.647Z,8.93
2022-09-10T20:31:24.362Z,6.40
2022-09-10T20:33:56.800Z,5.77
2022-09-10T20:36:24.829Z,3.33
2022-09-10T20:38:53.261Z,3.40
2022-09-10T20:41:20.935Z,5.37
2022-09-10T20:43:58.868Z,4.47
2022-09-10T20:46:26.903Z,6.60
2022-09-10T20:48:54.953Z,5.80
2022-09-10T20:51:22.265Z,4.93
2022-09-10T20:53:49.713Z,7.57
2022-09-10T20:56:18.567Z,5.50
2022-09-10T20:58:46.458Z,8.20
2022-09-10T21:01:16.577Z,9.37
2022-09-10T21:03:44.160Z,7.60
2022-09-10T21:06:12.716Z,12.13
2022-09-10T21:08:42.225Z,8.50
2022-09-10T21:11:10.613Z,9.87
2022-09-10T21:13:38.428Z,10.17
2022-09-10T21:16:10.275Z,9.83
2022-09-10T21:18:38.334Z,12.57
2022-09-10T21:21:09.494Z,12.23
2022-09-10T21:23:45.586Z,10.43
2022-09-10T21:26:14.104Z,13.23
2022-09-10T21:28:41.827Z,20.80
2022-09-10T21:31:10.100Z,11.47
2022-09-10T21:33:37.600Z,11.50
2022-09-10T21:36:10.369Z,11.33
2022-09-10T21:38:38.160Z,14.17
2022-09-10T21:41:08.377Z,15.53
2022-09-10T21:43:36.107Z,14.87
2022-09-10T21:46:04.475Z,17.37
2022-09-10T21:48:32.643Z,19.73
2022-09-10T21:51:00.638Z,20.17
2022-09-10T21:53:28.462Z,16.33
2022-09-10T21:55:56.570Z,19.57
2022-09-10T21:58:24.456Z,15.67
2022-09-10T22:00:51.705Z,16.70
2022-09-10T22:03:19.788Z,17.17
2022-09-10T22:05:47.105Z,20.03
2022-09-10T22:08:14.449Z,30.27
2022-09-10T22:10:41.962Z,18.00
2022-09-10T22:13:09.438Z,20.20
2022-09-10T22:15:39.251Z,25.10
2022-09-10T22:18:07.672Z,23.70
2022-09-10T22:20:35.765Z,26.07
2022-09-10T22:23:04.018Z,24.17
2022-09-10T22:25:33.152Z,27.20
2022-09-10T22:28:00.577Z,25.23
2022-09-10T22:30:28.400Z,19.60
2022-09-10T22:32:56.878Z,21.37
2022-09-10T22:35:27.626Z,20.93
2022-09-10T22:37:58.750Z,24.53
2022-09-10T22:40:26.089Z,27.97
2022-09-10T22:42:54.013Z,25.77
2022-09-10T22:45:21.306Z,23.57
2022-09-10T22:47:49.011Z,26.40
2022-09-10T22:50:16.450Z,22.43
2022-09-10T22:52:44.256Z,22.20
2022-09-10T22:55:11.495Z,22.53
2022-09-10T22:57:39.521Z,28.90
2022-09-10T23:00:07.959Z,26.40
2022-09-10T23:02:36.287Z,27.00
2022-09-10T23:05:03.704Z,25.33
2022-09-10T23:07:30.937Z,36.43
2022-09-10T23:10:00.036Z,31.37
2022-09-10T23:12:27.445Z,27.30
2022-09-10T23:14:54.927Z,40.07
2022-09-10T23:17:22.739Z,32.17
2022-09-10T23:19:50.228Z,30.30
2022-09-10T23:22:19.611Z,31.27
2022-09-10T23:24:46.864Z,38.10
2022-09-10T23:27:14.135Z,35.50
2022-09-10T23:29:42.103Z,33.03
2022-09-10T23:32:09.540Z,34.00
2022-09-10T23:34:36.913Z,43.87
2022-09-10T23:37:06.066Z,34.63
2022-09-10T23:39:33.299Z,35.13
2022-09-10T23:42:00.976Z,40.10
2022-09-10T23:44:28.624Z,35.43
2022-09-10T23:46:56.041Z,38.23
2022-09-10T23:49:26.666Z,32.93
2022-09-10T23:51:54.382Z,45.03
2022-09-10T23:54:24.721Z,40.30
2022-09-10T23:56:52.253Z,50.93
2022-09-10T23:59:28.047Z,46.40
